Time;durP1;ratioP1;P1;durP2;ratioP2;P2;SDS_P1;SDS_P2;PMS_P1;PMS_P2;Temp;Humidity;BMP_temperature;BMP_pressure;BME280_temperature;BME280_humidity;BME280_pressure;Samples;Min_cycle;Max_cycle;Signal;HPM_P1;HPM_P2
2022/09/03 00:02:27;;;;;;;3.13;2.93;;;;;;;;;;4986493;28;20218;-61
2022/09/03 00:05:10;;;;;;;3.03;2.83;;;;;;;;;;4971563;28;20708;-61
2022/09/03 00:07:36;;;;;;;3.20;3.00;;;;;;;;;;4996273;28;20538;-61
2022/09/03 00:10:09;;;;;;;3.78;3.42;;;;;;;;;;4990572;28;20447;-61
2022/09/03 00:12:38;;;;;;;3.13;2.93;;;;;;;;;;4970343;28;20189;-61
2022/09/03 00:15:04;;;;;;;3.50;3.30;;;;;;;;;;4983320;28;20172;-61
2022/09/03 00:17:41;;;;;;;3.10;2.90;;;;;;;;;;4989457;28;20267;-61
2022/09/03 00:20:07;;;;;;;3.30;3.10;;;;;;;;;;4993655;28;20190;-61
2022/09/03 00:22:46;;;;;;;3.07;2.97;;;;;;;;;;4981286;28;20321;-61
2022/09/03 00:25:14;;;;;;;3.13;3.03;;;;;;;;;;4988613;28;20229;-61
2022/09/03 00:27:42;;;;;;;3.60;2.90;;;;;;;;;;4992823;28;20638;-61
2022/09/03 00:30:12;;;;;;;3.20;3.00;;;;;;;;;;4975250;28;20229;-61
2022/09/03 00:32:46;;;;;;;3.17;2.97;;;;;;;;;;4996373;28;20698;-61
2022/09/03 00:35:31;;;;;;;3.33;3.13;;;;;;;;;;4990648;28;20709;-61
2022/09/03 00:37:57;;;;;;;2.93;2.73;;;;;;;;;;4993485;28;20240;-61
2022/09/03 00:40:46;;;;;;;3.00;2.80;;;;;;;;;;4955638;28;20237;-61
2022/09/03 00:43:15;;;;;;;3.07;2.87;;;;;;;;;;4939039;28;20726;-61
2022/09/03 00:46:04;;;;;;;2.83;2.63;;;;;;;;;;4981678;28;20190;-61
2022/09/03 00:48:33;;;;;;;2.90;2.70;;;;;;;;;;4980069;28;20190;-61
2022/09/03 00:51:02;;;;;;;3.03;2.83;;;;;;;;;;4963020;28;20665;-61
2022/09/03 00:53:31;;;;;;;3.27;3.07;;;;;;;;;;4980099;28;20201;-61
2022/09/03 00:56:03;;;;;;;2.50;2.30;;;;;;;;;;4977686;28;20197;-61
2022/09/03 00:58:29;;;;;;;2.60;2.50;;;;;;;;;;4971577;28;20201;-61
2022/09/03 01:00:55;;;;;;;3.00;2.80;;;;;;;;;;4964682;28;20802;-61
2022/09/03 01:03:34;;;;;;;3.30;3.10;;;;;;;;;;4975000;28;20674;-62
2022/09/03 01:06:06;;;;;;;3.03;2.80;;;;;;;;;;4977466;28;20204;-61
2022/09/03 01:08:50;;;;;;;2.87;2.67;;;;;;;;;;4982709;28;20225;-61
2022/09/03 01:11:35;;;;;;;2.70;2.60;;;;;;;;;;4978890;28;20190;-61
2022/09/03 01:14:16;;;;;;;2.70;2.60;;;;;;;;;;4966845;28;20284;-62
2022/09/03 01:16:45;;;;;;;3.20;3.00;;;;;;;;;;4963895;28;20204;-61
2022/09/03 01:19:26;;;;;;;3.27;2.80;;;;;;;;;;4970818;28;20275;-61
2022/09/03 01:22:14;;;;;;;2.70;2.60;;;;;;;;;;4974987;28;20185;-61
2022/09/03 01:24:49;;;;;;;2.90;2.80;;;;;;;;;;4969679;28;20191;-62
2022/09/03 01:27:21;;;;;;;2.87;2.70;;;;;;;;;;4980029;28;20199;-62
2022/09/03 01:29:57;;;;;;;2.50;2.40;;;;;;;;;;4967384;28;20196;-61
2022/09/03 01:32:41;;;;;;;2.73;2.53;;;;;;;;;;4980804;28;20187;-62
2022/09/03 01:35:11;;;;;;;2.63;2.30;;;;;;;;;;4965518;28;20689;-61
2022/09/03 01:37:43;;;;;;;3.00;2.80;;;;;;;;;;4958472;28;20175;-61
2022/09/03 01:40:12;;;;;;;2.67;2.57;;;;;;;;;;4979620;28;20231;-62
2022/09/03 01:42:44;;;;;;;2.80;2.70;;;;;;;;;;4993273;28;20183;-61
2022/09/03 01:45:15;;;;;;;2.97;2.77;;;;;;;;;;4984721;28;20183;-61
2022/09/03 01:48:01;;;;;;;2.60;2.50;;;;;;;;;;4996221;28;20643;-62
2022/09/03 01:50:42;;;;;;;2.70;2.60;;;;;;;;;;4957206;28;21005;-62
2022/09/03 01:53:21;;;;;;;3.17;2.97;;;;;;;;;;4985863;28;20194;-62
2022/09/03 01:56:08;;;;;;;2.97;2.87;;;;;;;;;;4995926;28;20175;-62
2022/09/03 01:58:37;;;;;;;2.67;2.43;;;;;;;;;;4981860;28;20714;-61
2022/09/03 02:01:09;;;;;;;2.85;2.65;;;;;;;;;;4992177;28;20443;-61
2022/09/03 02:03:39;;;;;;;3.17;2.87;;;;;;;;;;4987751;28;20625;-62
2022/09/03 02:06:06;;;;;;;2.70;2.50;;;;;;;;;;4992564;28;20305;-62
2022/09/03 02:08:32;;;;;;;3.10;2.90;;;;;;;;;;4987347;28;20255;-61
2022/09/03 02:11:01;;;;;;;2.80;2.60;;;;;;;;;;4977565;28;20318;-61
2022/09/03 02:13:41;;;;;;;2.80;2.60;;;;;;;;;;4999665;28;20180;-61
2022/09/03 02:16:19;;;;;;;2.80;2.60;;;;;;;;;;4993994;28;20182;-61
2022/09/03 02:18:50;;;;;;;2.67;2.50;;;;;;;;;;4986476;28;20292;-61
2022/09/03 02:21:18;;;;;;;3.20;3.00;;;;;;;;;;5003424;28;20794;-61
2022/09/03 02:23:45;;;;;;;2.90;2.80;;;;;;;;;;4991482;28;20169;-61
2022/09/03 02:26:12;;;;;;;2.57;2.47;;;;;;;;;;4998585;28;20642;-61
2022/09/03 02:28:38;;;;;;;2.70;2.50;;;;;;;;;;4989814;28;20179;-61
2022/09/03 02:31:04;;;;;;;2.80;2.50;;;;;;;;;;4992611;28;20182;-61
2022/09/03 02:33:37;;;;;;;2.87;2.73;;;;;;;;;;4985652;28;20257;-60
2022/09/03 02:36:04;;;;;;;2.53;2.40;;;;;;;;;;4997465;28;20642;-61
2022/09/03 02:38:31;;;;;;;2.83;2.70;;;;;;;;;;4974302;28;20566;-61
2022/09/03 02:40:57;;;;;;;3.07;2.87;;;;;;;;;;5003074;28;20277;-61
2022/09/03 02:43:27;;;;;;;2.47;2.37;;;;;;;;;;4990294;28;20172;-61
2022/09/03 02:45:55;;;;;;;2.90;2.70;;;;;;;;;;4998831;28;20171;-62
2022/09/03 02:48:22;;;;;;;2.97;2.80;;;;;;;;;;4990222;28;20178;-62
2022/09/03 02:50:48;;;;;;;2.70;2.50;;;;;;;;;;5001083;28;20592;-61
2022/09/03 02:53:15;;;;;;;3.23;3.03;;;;;;;;;;4994132;28;20227;-62
2022/09/03 02:55:41;;;;;;;2.90;2.70;;;;;;;;;;4985693;28;20182;-61
2022/09/03 02:58:07;;;;;;;2.83;2.63;;;;;;;;;;4995553;28;20198;-61
2022/09/03 03:00:34;;;;;;;2.87;2.67;;;;;;;;;;4993115;28;20263;-61
2022/09/03 03:03:01;;;;;;;2.83;2.63;;;;;;;;;;4989090;28;20215;-61
2022/09/03 03:05:45;;;;;;;3.53;2.80;;;;;;;;;;4974999;28;20744;-61
2022/09/03 03:08:13;;;;;;;3.03;2.83;;;;;;;;;;4987276;28;20211;-60
2022/09/03 03:10:41;;;;;;;2.83;2.67;;;;;;;;;;4980236;28;20216;-61
2022/09/03 03:13:07;;;;;;;3.00;2.80;;;;;;;;;;4992880;28;20181;-61
2022/09/03 03:15:33;;;;;;;2.63;2.40;;;;;;;;;;4996665;28;20265;-61
2022/09/03 03:17:59;;;;;;;2.90;2.70;;;;;;;;;;4994102;28;20185;-61
2022/09/03 03:20:25;;;;;;;2.80;2.70;;;;;;;;;;4980854;28;20187;-60
2022/09/03 03:22:51;;;;;;;3.43;3.23;;;;;;;;;;4959295;28;20184;-61
2022/09/03 03:25:17;;;;;;;2.60;2.50;;;;;;;;;;4991444;28;20187;-60
2022/09/03 03:27:44;;;;;;;3.10;2.90;;;;;;;;;;5004116;28;20210;-61
2022/09/03 03:30:11;;;;;;;2.90;2.73;;;;;;;;;;4995397;28;20680;-60
2022/09/03 03:32:37;;;;;;;2.73;2.57;;;;;;;;;;4986206;28;20210;-61
2022/09/03 03:35:04;;;;;;;2.80;2.60;;;;;;;;;;4993540;28;20187;-61
2022/09/03 03:37:30;;;;;;;2.60;2.50;;;;;;;;;;4979844;28;20215;-61
2022/09/03 03:39:56;;;;;;;2.90;2.70;;;;;;;;;;4996845;28;20226;-61
2022/09/03 03:42:22;;;;;;;2.80;2.60;;;;;;;;;;4996676;28;20178;-61
2022/09/03 03:44:48;;;;;;;3.00;2.80;;;;;;;;;;4974404;28;20214;-61
2022/09/03 03:47:15;;;;;;;3.03;2.83;;;;;;;;;;4998795;28;20187;-61
2022/09/03 03:49:42;;;;;;;3.10;2.90;;;;;;;;;;4995815;28;20205;-61
2022/09/03 03:52:08;;;;;;;2.90;2.70;;;;;;;;;;4987752;28;20187;-61
2022/09/03 03:54:40;;;;;;;3.30;3.00;;;;;;;;;;4984691;28;20305;-61
2022/09/03 03:57:07;;;;;;;2.60;2.50;;;;;;;;;;4976299;28;20174;-61
2022/09/03 03:59:33;;;;;;;2.93;2.73;;;;;;;;;;4977558;28;20729;-61
2022/09/03 04:01:59;;;;;;;2.70;2.50;;;;;;;;;;4989708;28;20673;-61
2022/09/03 04:04:25;;;;;;;2.60;2.50;;;;;;;;;;4995402;28;20179;-61
2022/09/03 04:06:51;;;;;;;3.27;3.07;;;;;;;;;;4997626;28;20269;-61
2022/09/03 04:09:17;;;;;;;9.70;9.30;;;;;;;;;;5001376;28;20554;-61
2022/09/03 04:11:43;;;;;;;2.00;1.90;;;;;;;;;;4973706;28;20733;-61
2022/09/03 04:14:09;;;;;;;2.60;2.50;;;;;;;;;;4996169;28;20203;-61
2022/09/03 04:16:35;;;;;;;2.80;2.70;;;;;;;;;;4998729;28;20233;-61
2022/09/03 04:19:01;;;;;;;2.90;2.70;;;;;;;;;;4988124;28;20175;-61
2022/09/03 04:21:28;;;;;;;2.87;2.67;;;;;;;;;;4985936;28;20184;-61
2022/09/03 04:23:55;;;;;;;2.63;2.43;;;;;;;;;;4988755;28;20209;-62
2022/09/03 04:26:22;;;;;;;2.60;2.50;;;;;;;;;;5008679;28;20248;-62
2022/09/03 04:28:48;;;;;;;2.73;2.53;;;;;;;;;;4987961;28;20240;-61
2022/09/03 04:31:15;;;;;;;3.40;3.20;;;;;;;;;;5007754;28;20236;-61
2022/09/03 04:33:42;;;;;;;3.10;2.97;;;;;;;;;;4998809;28;20259;-61
2022/09/03 04:36:09;;;;;;;8.07;3.47;;;;;;;;;;5004017;28;20194;-61
2022/09/03 04:38:36;;;;;;;3.07;2.77;;;;;;;;;;4996792;28;20606;-61
2022/09/03 04:41:03;;;;;;;2.40;2.20;;;;;;;;;;4979967;28;20239;-61
2022/09/03 04:43:29;;;;;;;2.43;2.33;;;;;;;;;;4975722;28;20273;-61
2022/09/03 04:45:59;;;;;;;3.80;2.50;;;;;;;;;;4976355;28;20236;-61
2022/09/03 04:48:26;;;;;;;2.90;2.77;;;;;;;;;;4993307;28;20217;-62
2022/09/03 04:50:52;;;;;;;2.70;2.50;;;;;;;;;;4985522;28;20297;-61
2022/09/03 04:53:18;;;;;;;2.43;2.27;;;;;;;;;;4994876;28;21002;-61
2022/09/03 04:55:44;;;;;;;2.20;2.00;;;;;;;;;;5002537;28;20914;-60
2022/09/03 04:58:10;;;;;;;2.47;2.37;;;;;;;;;;4995437;28;20206;-61
2022/09/03 05:00:37;;;;;;;7.13;6.83;;;;;;;;;;4992975;28;20184;-61
2022/09/03 05:03:04;;;;;;;2.60;2.50;;;;;;;;;;4986438;28;20176;-60
2022/09/03 05:05:30;;;;;;;2.60;2.20;;;;;;;;;;4998422;28;20615;-61
2022/09/03 05:08:03;;;;;;;2.60;2.50;;;;;;;;;;4976358;28;20183;-60
2022/09/03 05:10:29;;;;;;;2.93;2.73;;;;;;;;;;5000929;28;20685;-60
2022/09/03 05:13:00;;;;;;;2.10;2.00;;;;;;;;;;4983697;28;20194;-61
2022/09/03 05:15:26;;;;;;;2.50;2.30;;;;;;;;;;4956159;28;20654;-61
2022/09/03 05:17:55;;;;;;;2.60;2.43;;;;;;;;;;4990234;28;20636;-61
2022/09/03 05:20:22;;;;;;;2.73;2.53;;;;;;;;;;4991021;28;20300;-61
2022/09/03 05:22:48;;;;;;;2.60;2.40;;;;;;;;;;4993041;28;20207;-61
2022/09/03 05:25:14;;;;;;;3.10;2.37;;;;;;;;;;4997087;28;20188;-61
2022/09/03 05:27:41;;;;;;;3.00;2.80;;;;;;;;;;4991496;28;20178;-61
2022/09/03 05:30:07;;;;;;;2.30;2.10;;;;;;;;;;4987726;28;20694;-61
2022/09/03 05:32:41;;;;;;;2.60;2.40;;;;;;;;;;4988680;28;20237;-61
2022/09/03 05:35:09;;;;;;;2.33;2.20;;;;;;;;;;4995284;28;20215;-61
2022/09/03 05:37:42;;;;;;;2.63;2.50;;;;;;;;;;4972047;28;20192;-61
2022/09/03 05:40:15;;;;;;;2.20;2.10;;;;;;;;;;5000484;28;20693;-61
2022/09/03 05:42:41;;;;;;;2.50;2.40;;;;;;;;;;4999631;28;20187;-61
2022/09/03 05:45:09;;;;;;;2.50;2.33;;;;;;;;;;4990937;28;20189;-61
2022/09/03 05:47:36;;;;;;;2.70;2.50;;;;;;;;;;4997996;28;20417;-61
2022/09/03 05:50:03;;;;;;;2.43;2.33;;;;;;;;;;4998750;28;20210;-61
2022/09/03 05:52:29;;;;;;;2.20;2.10;;;;;;;;;;4999976;28;20269;-60
2022/09/03 05:54:55;;;;;;;2.47;2.27;;;;;;;;;;4979257;28;20206;-61
2022/09/03 05:57:21;;;;;;;2.33;2.13;;;;;;;;;;4979776;28;20231;-61
2022/09/03 05:59:47;;;;;;;2.10;2.00;;;;;;;;;;4993695;28;20174;-60
2022/09/03 06:02:13;;;;;;;2.70;2.50;;;;;;;;;;5001706;28;20186;-60
2022/09/03 06:04:39;;;;;;;2.50;2.40;;;;;;;;;;4979963;28;20183;-61
2022/09/03 06:07:05;;;;;;;2.30;2.20;;;;;;;;;;4984328;28;20543;-61
2022/09/03 06:09:31;;;;;;;2.50;2.40;;;;;;;;;;4986222;28;20568;-60
2022/09/03 06:11:57;;;;;;;2.70;2.60;;;;;;;;;;4981176;28;20192;-60
2022/09/03 06:14:24;;;;;;;2.43;2.33;;;;;;;;;;4981398;28;20627;-60
2022/09/03 06:16:51;;;;;;;2.33;2.23;;;;;;;;;;4987860;28;20194;-61
2022/09/03 06:19:18;;;;;;;2.47;2.00;;;;;;;;;;4977166;28;20642;-60
2022/09/03 06:21:45;;;;;;;2.30;2.10;;;;;;;;;;4980891;28;20179;-61
2022/09/03 06:24:15;;;;;;;2.77;2.57;;;;;;;;;;4978070;28;20191;-66
2022/09/03 06:26:41;;;;;;;2.63;2.40;;;;;;;;;;4982335;28;20649;-61
2022/09/03 06:29:07;;;;;;;3.00;2.80;;;;;;;;;;4973390;28;20195;-61
2022/09/03 06:31:34;;;;;;;2.70;2.50;;;;;;;;;;4978382;28;20659;-61
2022/09/03 06:34:00;;;;;;;3.27;2.53;;;;;;;;;;4973432;28;21112;-60
2022/09/03 06:36:27;;;;;;;2.80;2.60;;;;;;;;;;4983825;28;20258;-61
2022/09/03 06:38:54;;;;;;;2.90;2.50;;;;;;;;;;4992308;28;20183;-61
2022/09/03 06:41:25;;;;;;;2.20;2.10;;;;;;;;;;4971930;28;20230;-61
2022/09/03 06:44:01;;;;;;;2.60;2.40;;;;;;;;;;4983600;28;20190;-62
2022/09/03 06:46:28;;;;;;;3.10;2.43;;;;;;;;;;4985916;28;20171;-62
2022/09/03 06:48:54;;;;;;;6.37;2.60;;;;;;;;;;4997012;28;20191;-60
2022/09/03 06:51:22;;;;;;;2.80;2.60;;;;;;;;;;4984679;28;20183;-62
2022/09/03 06:53:49;;;;;;;2.50;2.30;;;;;;;;;;4983433;28;20187;-62
2022/09/03 06:56:17;;;;;;;2.20;2.10;;;;;;;;;;4993876;28;20669;-62
2022/09/03 06:58:44;;;;;;;2.60;2.10;;;;;;;;;;4989500;28;20190;-62
2022/09/03 07:01:12;;;;;;;3.43;2.20;;;;;;;;;;4987435;28;20183;-62
2022/09/03 07:03:38;;;;;;;2.67;2.57;;;;;;;;;;5004079;28;20175;-61
2022/09/03 07:06:06;;;;;;;2.53;2.43;;;;;;;;;;4986345;28;20211;-61
2022/09/03 07:08:33;;;;;;;2.50;2.30;;;;;;;;;;4991853;28;20183;-61
2022/09/03 07:11:04;;;;;;;2.40;2.30;;;;;;;;;;4972695;28;20206;-62
2022/09/03 07:13:32;;;;;;;2.47;2.27;;;;;;;;;;4973857;28;20271;-62
2022/09/03 07:16:02;;;;;;;3.10;2.37;;;;;;;;;;4993512;28;20179;-62
2022/09/03 07:18:28;;;;;;;2.70;2.50;;;;;;;;;;4973306;28;20176;-61
2022/09/03 07:20:58;;;;;;;2.97;2.33;;;;;;;;;;4990212;28;20270;-62
2022/09/03 07:23:25;;;;;;;2.93;2.73;;;;;;;;;;4987716;28;20191;-60
2022/09/03 07:25:58;;;;;;;3.33;3.03;;;;;;;;;;4962227;28;20190;-59
2022/09/03 07:28:25;;;;;;;3.10;2.90;;;;;;;;;;4989661;28;20207;-59
2022/09/03 07:30:51;;;;;;;2.57;2.27;;;;;;;;;;4987587;28;20508;-59
2022/09/03 07:33:18;;;;;;;2.47;2.37;;;;;;;;;;4988681;28;20218;-59
2022/09/03 07:35:44;;;;;;;3.13;2.50;;;;;;;;;;4988820;28;20233;-59
2022/09/03 07:38:10;;;;;;;3.07;2.87;;;;;;;;;;4984607;28;20653;-59
2022/09/03 07:40:38;;;;;;;2.50;2.40;;;;;;;;;;4978964;28;20702;-59
2022/09/03 07:43:04;;;;;;;2.43;2.23;;;;;;;;;;4976667;28;20179;-58
2022/09/03 07:45:32;;;;;;;2.77;2.57;;;;;;;;;;4975843;28;20183;-59
2022/09/03 07:47:58;;;;;;;3.60;2.33;;;;;;;;;;4976851;28;20780;-59
2022/09/03 07:50:24;;;;;;;4.90;2.67;;;;;;;;;;4993234;28;20217;-59
2022/09/03 07:52:55;;;;;;;2.80;2.60;;;;;;;;;;5008410;28;20177;-58
2022/09/03 07:55:21;;;;;;;3.67;2.60;;;;;;;;;;4998697;28;20185;-59
2022/09/03 07:57:47;;;;;;;2.87;2.50;;;;;;;;;;4999956;28;20432;-59
2022/09/03 08:00:14;;;;;;;2.47;2.30;;;;;;;;;;4990317;28;20530;-59
2022/09/03 08:02:40;;;;;;;2.30;2.10;;;;;;;;;;5003112;28;20657;-59
2022/09/03 08:05:06;;;;;;;2.27;2.17;;;;;;;;;;4989633;28;20796;-59
2022/09/03 08:07:32;;;;;;;2.63;2.43;;;;;;;;;;5000822;28;20185;-59
2022/09/03 08:10:00;;;;;;;2.53;2.37;;;;;;;;;;4988800;28;20199;-59
2022/09/03 08:12:26;;;;;;;2.43;2.30;;;;;;;;;;4997926;28;20280;-59
2022/09/03 08:14:53;;;;;;;2.67;2.30;;;;;;;;;;4986986;28;20204;-59
2022/09/03 08:17:19;;;;;;;7.37;2.90;;;;;;;;;;4987201;28;20178;-59
2022/09/03 08:19:46;;;;;;;3.63;2.40;;;;;;;;;;4987563;28;20194;-59
2022/09/03 08:22:12;;;;;;;4.07;3.10;;;;;;;;;;4986549;28;20193;-59
2022/09/03 08:24:38;;;;;;;2.20;2.10;;;;;;;;;;4990161;28;20181;-59
2022/09/03 08:27:04;;;;;;;4.43;2.23;;;;;;;;;;4997835;28;20186;-57
2022/09/03 08:29:30;;;;;;;3.00;2.23;;;;;;;;;;4985940;28;20215;-57
2022/09/03 08:31:56;;;;;;;2.33;2.23;;;;;;;;;;4985541;28;20263;-56
2022/09/03 08:34:22;;;;;;;2.63;2.43;;;;;;;;;;4990703;28;20179;-57
2022/09/03 08:36:49;;;;;;;2.87;2.67;;;;;;;;;;4986416;28;20191;-58
2022/09/03 08:39:15;;;;;;;3.53;2.77;;;;;;;;;;4982500;28;20192;-58
2022/09/03 08:41:51;;;;;;;5.77;3.13;;;;;;;;;;4984169;28;20764;-58
2022/09/03 08:44:25;;;;;;;8.17;3.40;;;;;;;;;;4963093;28;20244;-60
2022/09/03 08:47:05;;;;;;;4.00;2.97;;;;;;;;;;4981919;28;20183;-59
2022/09/03 08:49:34;;;;;;;3.63;3.33;;;;;;;;;;4966255;28;20794;-60
2022/09/03 08:52:02;;;;;;;3.07;2.70;;;;;;;;;;4994872;28;20558;-59
2022/09/03 08:54:30;;;;;;;3.77;3.47;;;;;;;;;;4983887;28;20216;-60
2022/09/03 08:56:59;;;;;;;2.80;2.60;;;;;;;;;;4990136;28;20441;-58
2022/09/03 08:59:25;;;;;;;3.07;2.60;;;;;;;;;;4991841;28;20191;-59
2022/09/03 09:02:10;;;;;;;3.27;2.83;;;;;;;;;;4988247;28;20512;-60
2022/09/03 09:04:36;;;;;;;3.87;2.80;;;;;;;;;;4987251;28;20620;-59
2022/09/03 09:07:10;;;;;;;2.70;2.50;;;;;;;;;;4986908;28;20275;-58
2022/09/03 09:09:36;;;;;;;3.77;2.47;;;;;;;;;;4984780;28;20213;-59
2022/09/03 09:12:27;;;;;;;3.80;3.60;;;;;;;;;;4985705;28;20184;-60
2022/09/03 09:15:04;;;;;;;3.93;2.80;;;;;;;;;;4995665;28;20961;-59
2022/09/03 09:17:51;;;;;;;2.40;2.20;;;;;;;;;;4966093;28;20191;-59
2022/09/03 09:20:53;;;;;;;2.83;2.57;;;;;;;;;;4981312;28;20271;-60
2022/09/03 09:23:22;;;;;;;4.03;2.37;;;;;;;;;;4906556;29;20183;-60
2022/09/03 09:25:49;;;;;;;2.70;2.60;;;;;;;;;;4966793;28;20839;-59
2022/09/03 09:28:20;;;;;;;2.93;2.73;;;;;;;;;;4994995;28;20180;-60
2022/09/03 09:30:47;;;;;;;3.03;2.60;;;;;;;;;;4980982;28;20209;-60
2022/09/03 09:33:14;;;;;;;3.13;2.93;;;;;;;;;;4962752;28;20235;-60
2022/09/03 09:35:41;;;;;;;2.90;2.50;;;;;;;;;;4986369;28;20227;-59
2022/09/03 09:38:08;;;;;;;4.40;2.57;;;;;;;;;;4979925;28;20200;-59
2022/09/03 09:40:34;;;;;;;2.47;2.37;;;;;;;;;;4988788;28;20227;-59
2022/09/03 09:43:04;;;;;;;8.67;3.50;;;;;;;;;;4974982;28;20593;-59
2022/09/03 09:45:33;;;;;;;3.97;2.20;;;;;;;;;;4993617;28;20227;-60
2022/09/03 09:47:59;;;;;;;3.07;2.30;;;;;;;;;;4976108;28;20668;-58
2022/09/03 09:50:25;;;;;;;3.07;2.87;;;;;;;;;;4979648;28;20212;-59
2022/09/03 09:53:04;;;;;;;2.80;2.60;;;;;;;;;;4976932;28;20179;-58
2022/09/03 09:55:31;;;;;;;3.77;3.47;;;;;;;;;;4982071;28;20692;-58
2022/09/03 09:58:09;;;;;;;2.93;2.67;;;;;;;;;;4977756;28;20507;-58
2022/09/03 10:00:37;;;;;;;2.70;2.50;;;;;;;;;;4968615;28;20190;-58
2022/09/03 10:03:07;;;;;;;3.20;2.80;;;;;;;;;;4975531;28;20224;-58
2022/09/03 10:05:35;;;;;;;3.07;2.60;;;;;;;;;;4977161;28;20226;-60
2022/09/03 10:08:06;;;;;;;4.30;2.40;;;;;;;;;;4982291;28;20191;-60
2022/09/03 10:10:44;;;;;;;2.63;2.10;;;;;;;;;;4981598;28;20238;-58
2022/09/03 10:13:13;;;;;;;2.33;2.22;;;;;;;;;;4971770;28;20441;-58
2022/09/03 10:15:51;;;;;;;3.27;2.90;;;;;;;;;;4978189;28;20586;-58
2022/09/03 10:18:37;;;;;;;3.33;2.83;;;;;;;;;;4985384;28;20533;-58
2022/09/03 10:21:09;;;;;;;3.00;2.80;;;;;;;;;;4970360;28;20714;-57
2022/09/03 10:23:58;;;;;;;3.00;2.40;;;;;;;;;;4979928;28;20275;-57
2022/09/03 10:26:29;;;;;;;2.77;2.23;;;;;;;;;;4982347;28;20171;-60
2022/09/03 10:28:57;;;;;;;2.70;2.50;;;;;;;;;;4977570;28;20585;-58
2022/09/03 10:31:24;;;;;;;3.53;3.23;;;;;;;;;;4995286;28;20204;-60
2022/09/03 10:33:50;;;;;;;2.40;2.30;;;;;;;;;;4978215;28;20248;-58
2022/09/03 10:36:42;;;;;;;3.20;2.83;;;;;;;;;;4981428;28;20180;-57
2022/09/03 10:39:21;;;;;;;2.90;2.70;;;;;;;;;;4980113;28;20579;-57
2022/09/03 10:42:03;;;;;;;4.00;3.70;;;;;;;;;;4996287;28;20622;-57
2022/09/03 10:44:42;;;;;;;3.07;2.67;;;;;;;;;;4993896;28;20518;-58
2022/09/03 10:47:23;;;;;;;2.90;2.60;;;;;;;;;;4994016;28;20188;-57
2022/09/03 10:50:16;;;;;;;2.70;2.50;;;;;;;;;;4984323;28;20215;-57
2022/09/03 10:52:46;;;;;;;3.37;3.07;;;;;;;;;;4977353;28;20195;-57
2022/09/03 10:55:35;;;;;;;3.07;2.83;;;;;;;;;;5001223;28;20218;-57
2022/09/03 10:58:04;;;;;;;2.90;2.70;;;;;;;;;;4998708;28;20982;-56
2022/09/03 11:00:32;;;;;;;8.97;3.10;;;;;;;;;;4992023;28;20593;-57
2022/09/03 11:02:58;;;;;;;3.00;2.80;;;;;;;;;;4993309;28;20187;-56
2022/09/03 11:05:31;;;;;;;2.90;2.60;;;;;;;;;;4991744;28;20229;-56
2022/09/03 11:08:04;;;;;;;3.33;3.00;;;;;;;;;;5001450;28;20183;-56
2022/09/03 11:10:32;;;;;;;2.90;2.70;;;;;;;;;;5002567;28;20211;-57
2022/09/03 11:12:58;;;;;;;6.00;3.70;;;;;;;;;;4994767;28;20183;-57
2022/09/03 11:15:30;;;;;;;2.87;2.67;;;;;;;;;;5000384;28;20214;-57
2022/09/03 11:18:14;;;;;;;3.37;2.87;;;;;;;;;;5002418;28;20866;-57
2022/09/03 11:20:41;;;;;;;5.03;3.37;;;;;;;;;;4999033;28;20639;-57
2022/09/03 11:23:10;;;;;;;3.80;3.50;;;;;;;;;;4999377;28;20662;-57
2022/09/03 11:25:56;;;;;;;3.03;2.87;;;;;;;;;;4995977;28;20179;-57
2022/09/03 11:28:22;;;;;;;6.27;2.83;;;;;;;;;;4998020;28;20183;-57
2022/09/03 11:30:51;;;;;;;3.40;3.10;;;;;;;;;;4990172;28;20734;-57
2022/09/03 11:33:19;;;;;;;2.83;2.63;;;;;;;;;;4988283;28;20180;-58
2022/09/03 11:35:45;;;;;;;3.70;2.80;;;;;;;;;;4988807;28;20216;-57
2022/09/03 11:38:15;;;;;;;3.40;3.10;;;;;;;;;;4972784;28;20876;-56
2022/09/03 11:41:14;;;;;;;4.47;4.07;;;;;;;;;;4987036;28;20227;-57
2022/09/03 11:43:41;;;;;;;3.33;3.13;;;;;;;;;;4942383;28;20191;-57
2022/09/03 11:46:13;;;;;;;3.60;3.17;;;;;;;;;;4986518;28;20184;-57
2022/09/03 11:48:46;;;;;;;3.43;3.13;;;;;;;;;;4990593;28;20187;-57
2022/09/03 11:51:34;;;;;;;4.40;4.10;;;;;;;;;;4990270;28;20226;-58
2022/09/03 11:54:23;;;;;;;3.40;3.10;;;;;;;;;;4990260;28;20553;-58
2022/09/03 11:56:50;;;;;;;4.97;3.43;;;;;;;;;;4985072;28;20708;-58
2022/09/03 11:59:18;;;;;;;6.17;4.90;;;;;;;;;;4992383;28;20217;-58
2022/09/03 12:01:58;;;;;;;3.60;3.30;;;;;;;;;;4992779;28;20181;-58
2022/09/03 12:04:38;;;;;;;4.17;3.87;;;;;;;;;;4983056;28;20177;-58
2022/09/03 12:07:04;;;;;;;3.30;3.00;;;;;;;;;;4982102;28;20178;-59
2022/09/03 12:09:30;;;;;;;2.77;2.57;;;;;;;;;;4989492;28;20534;-59
2022/09/03 12:11:56;;;;;;;2.90;2.70;;;;;;;;;;4988782;28;20184;-58
2022/09/03 12:14:45;;;;;;;4.23;2.73;;;;;;;;;;4992491;28;20643;-58
2022/09/03 12:17:22;;;;;;;5.33;2.83;;;;;;;;;;4984545;28;20177;-59
2022/09/03 12:19:53;;;;;;;2.90;2.70;;;;;;;;;;4981716;28;20714;-58
2022/09/03 12:22:20;;;;;;;8.20;7.80;;;;;;;;;;4996932;28;20624;-58
2022/09/03 12:24:46;;;;;;;4.40;4.10;;;;;;;;;;4995679;28;20688;-58
2022/09/03 12:27:23;;;;;;;4.53;2.87;;;;;;;;;;4991596;28;20802;-58
2022/09/03 12:30:00;;;;;;;3.43;3.23;;;;;;;;;;4989949;28;20769;-58
2022/09/03 12:32:36;;;;;;;3.10;2.90;;;;;;;;;;4992297;28;20708;-58
2022/09/03 12:35:16;;;;;;;2.80;2.60;;;;;;;;;;4997413;28;20182;-58
2022/09/03 12:37:45;;;;;;;3.37;2.67;;;;;;;;;;4993253;28;20189;-58
2022/09/03 12:40:18;;;;;;;5.27;3.53;;;;;;;;;;4984394;28;20236;-58
2022/09/03 12:42:44;;;;;;;3.70;3.50;;;;;;;;;;4995205;28;20207;-58
2022/09/03 12:45:14;;;;;;;3.50;3.30;;;;;;;;;;4989412;28;20561;-58
2022/09/03 12:47:40;;;;;;;3.77;3.47;;;;;;;;;;4988441;28;20199;-57
2022/09/03 12:50:18;;;;;;;2.63;2.37;;;;;;;;;;4983659;28;20208;-58
2022/09/03 12:52:52;;;;;;;3.30;2.70;;;;;;;;;;4988499;28;20638;-58
2022/09/03 12:55:18;;;;;;;2.90;2.70;;;;;;;;;;4980175;28;20199;-57
2022/09/03 12:57:46;;;;;;;3.00;2.80;;;;;;;;;;4992020;28;20181;-58
2022/09/03 13:00:17;;;;;;;3.50;3.17;;;;;;;;;;4988657;28;20196;-56
2022/09/03 13:02:51;;;;;;;65.60;6.87;;;;;;;;;;4994859;28;20213;-58
2022/09/03 13:05:19;;;;;;;4.10;3.17;;;;;;;;;;4994422;28;20292;-57
2022/09/03 13:07:57;;;;;;;4.90;2.90;;;;;;;;;;4985949;28;20821;-57
2022/09/03 13:10:31;;;;;;;3.07;2.87;;;;;;;;;;4980945;28;20202;-57
2022/09/03 13:12:58;;;;;;;2.90;2.70;;;;;;;;;;4983143;28;20745;-57
2022/09/03 13:15:25;;;;;;;3.13;2.93;;;;;;;;;;4985047;28;20191;-56
2022/09/03 13:18:02;;;;;;;3.70;3.50;;;;;;;;;;4983176;28;20233;-57
2022/09/03 13:20:33;;;;;;;4.60;3.00;;;;;;;;;;4987333;28;20191;-57
2022/09/03 13:23:07;;;;;;;3.77;3.47;;;;;;;;;;4993830;28;20225;-56
2022/09/03 13:26:00;;;;;;;3.63;3.43;;;;;;;;;;5007847;28;20197;-57
2022/09/03 13:28:35;;;;;;;3.17;2.87;;;;;;;;;;4991447;28;20274;-57
2022/09/03 13:31:20;;;;;;;3.40;3.20;;;;;;;;;;4996901;28;20516;-56
2022/09/03 13:33:50;;;;;;;3.67;2.93;;;;;;;;;;4986350;28;20514;-57
2022/09/03 13:36:19;;;;;;;4.00;3.20;;;;;;;;;;5000998;28;20241;-57
2022/09/03 13:39:04;;;;;;;4.27;3.37;;;;;;;;;;4996668;28;20849;-57
2022/09/03 13:41:37;;;;;;;3.80;3.50;;;;;;;;;;5003886;28;20671;-57
2022/09/03 13:44:04;;;;;;;3.53;3.23;;;;;;;;;;4984013;28;20204;-56
2022/09/03 13:46:34;;;;;;;3.60;2.90;;;;;;;;;;4990898;28;20827;-56
2022/09/03 13:52:03;;;;;;;3.50;3.30;;;;;;;;;;4996889;28;20241;-57
2022/09/03 13:54:41;;;;;;;3.53;3.20;;;;;;;;;;4976872;28;20179;-57
2022/09/03 13:57:07;;;;;;;4.60;4.30;;;;;;;;;;4985095;28;20180;-57
2022/09/03 13:59:48;;;;;;;8.10;7.20;;;;;;;;;;4998745;28;20653;-57
2022/09/03 14:02:26;;;;;;;8.70;7.90;;;;;;;;;;4985428;28;20433;-56
2022/09/03 14:04:55;;;;;;;8.83;6.27;;;;;;;;;;4988014;28;20477;-58
2022/09/03 14:07:26;;;;;;;4.50;4.17;;;;;;;;;;4984602;28;20237;-56
2022/09/03 14:09:55;;;;;;;5.23;4.80;;;;;;;;;;4991685;28;20866;-56
2022/09/03 14:12:25;;;;;;;6.00;5.37;;;;;;;;;;4979907;28;20755;-57
2022/09/03 14:15:03;;;;;;;6.67;6.03;;;;;;;;;;4986354;28;20196;-58
2022/09/03 14:17:52;;;;;;;8.20;5.60;;;;;;;;;;4986029;28;20586;-58
2022/09/03 14:20:24;;;;;;;8.33;7.70;;;;;;;;;;4969758;28;20258;-58
2022/09/03 14:22:53;;;;;;;5.80;5.20;;;;;;;;;;4984029;28;20642;-58
2022/09/03 14:25:20;;;;;;;9.80;5.57;;;;;;;;;;4993504;28;20540;-58
2022/09/03 14:27:46;;;;;;;8.57;6.43;;;;;;;;;;4988357;28;20181;-58
2022/09/03 14:30:12;;;;;;;4.93;4.50;;;;;;;;;;4982881;28;20219;-57
2022/09/03 14:32:57;;;;;;;4.90;4.20;;;;;;;;;;4978679;28;20758;-58
2022/09/03 14:35:31;;;;;;;6.60;4.93;;;;;;;;;;4967663;28;20174;-58
2022/09/03 14:38:16;;;;;;;5.33;4.77;;;;;;;;;;4982449;28;20989;-58
2022/09/03 14:40:44;;;;;;;5.73;5.17;;;;;;;;;;4970015;28;20257;-57
2022/09/03 14:43:29;;;;;;;3.77;3.30;;;;;;;;;;4984534;28;20184;-58
2022/09/03 14:46:03;;;;;;;4.00;3.70;;;;;;;;;;4996559;28;20232;-58
2022/09/03 14:48:47;;;;;;;6.47;3.47;;;;;;;;;;4987263;28;20194;-58
2022/09/03 14:51:32;;;;;;;4.17;3.87;;;;;;;;;;4993074;28;20219;-58
2022/09/03 14:54:11;;;;;;;3.53;3.23;;;;;;;;;;4982294;28;21255;-58
2022/09/03 14:57:01;;;;;;;4.33;4.13;;;;;;;;;;4997219;28;20722;-58
2022/09/03 14:59:27;;;;;;;5.07;3.50;;;;;;;;;;4974821;28;20680;-57
2022/09/03 15:02:12;;;;;;;4.67;4.37;;;;;;;;;;4997218;28;20237;-57
2022/09/03 15:04:49;;;;;;;4.30;4.00;;;;;;;;;;4987776;28;20282;-57
2022/09/03 15:07:41;;;;;;;9.00;8.13;;;;;;;;;;5004583;28;20239;-57
2022/09/03 15:10:22;;;;;;;6.00;5.07;;;;;;;;;;4992811;28;20210;-57